Time,TemperatureF,DewpointF,PressureIn,WindDirection,WindDirectionDegrees,WindSpeedMPH,WindSpeedGustMPH,Humidity,HourlyPrecipIn,Conditions,Clouds,dailyrainin,SoftwareType,DateUTC
2013-07-15 00:01:00,69.2,67.5,29.63,SW,225,1.0,2.0,95,0.00,,,0.00,Rainwise IP-100,2013-07-15 04:01:00,
2013-07-15 00:06:00,69.1,67.0,29.63,SW,225,0.0,3.0,95,0.00,,,0.00,Rainwise IP-100,2013-07-15 04:06:00,
2013-07-15 00:11:00,68.9,67.5,29.63,SW,225,0.0,0.0,96,0.00,,,0.00,Rainwise IP-100,2013-07-15 04:11:00,
2013-07-15 00:16:00,68.5,67.0,29.63,SW,225,0.0,0.0,95,0.00,,,0.00,Rainwise IP-100,2013-07-15 04:16:00,
2013-07-15 00:21:00,68.3,67.0,29.63,SW,225,0.0,0.0,95,0.00,,,0.00,Rainwise IP-100,2013-07-15 04:21:00,
2013-07-15 00:26:00,68.2,66.7,29.63,SW,225,0.0,0.0,96,0.00,,,0.00,Rainwise IP-100,2013-07-15 04:26:00,
2013-07-15 00:31:00,68.0,66.7,29.62,SW,225,0.0,0.0,96,0.00,,,0.00,Rainwise IP-100,2013-07-15 04:31:00,
2013-07-15 00:36:00,67.9,67.0,29.62,SW,225,0.0,0.0,97,0.00,,,0.00,Rainwise IP-100,2013-07-15 04:36:00,
2013-07-15 00:42:00,67.7,66.3,29.63,SW,225,3.0,0.0,96,0.00,,,0.00,Rainwise IP-100,2013-07-15 04:42:00,
2013-07-15 00:47:00,67.9,67.5,29.62,SW,225,0.0,3.0,98,0.00,,,0.00,Rainwise IP-100,2013-07-15 04:47:00,
2013-07-15 00:52:00,67.9,67.5,29.62,SW,225,0.0,0.0,98,0.00,,,0.00,Rainwise IP-100,2013-07-15 04:52:00,
2013-07-15 00:57:00,67.8,67.0,29.62,SW,225,0.0,0.0,97,0.00,,,0.00,Rainwise IP-100,2013-07-15 04:57:00,
2013-07-15 01:02:00,67.6,66.7,29.62,SW,225,0.0,0.0,97,0.00,,,0.00,Rainwise IP-100,2013-07-15 05:02:00,
2013-07-15 01:07:00,67.5,67.0,29.62,SW,225,0.0,0.0,98,0.00,,,0.00,Rainwise IP-100,2013-07-15 05:07:00,
2013-07-15 01:12:00,67.3,67.0,29.62,SW,225,0.0,0.0,98,0.00,,,0.00,Rainwise IP-100,2013-07-15 05:12:00,
2013-07-15 01:18:00,67.2,66.7,29.62,SW,225,0.0,0.0,98,0.00,,,0.00,Rainwise IP-100,2013-07-15 05:18:00,
2013-07-15 01:23:00,67.1,66.7,29.62,SW,225,0.0,0.0,98,0.00,,,0.00,Rainwise IP-100,2013-07-15 05:23:00,
2013-07-15 01:28:00,66.9,66.7,29.62,SW,225,0.0,0.0,98,0.00,,,0.00,Rainwise IP-100,2013-07-15 05:28:00,
2013-07-15 01:33:00,67.2,66.7,29.62,SW,225,0.0,2.0,99,0.00,,,0.00,Rainwise IP-100,2013-07-15 05:33:00,
2013-07-15 01:38:00,67.1,66.7,29.62,SW,225,0.0,1.0,98,0.00,,,0.00,Rainwise IP-100,2013-07-15 05:38:00,
2013-07-15 01:43:00,67.2,67.0,29.62,SW,225,0.0,0.0,100,0.00,,,0.00,Rainwise IP-100,2013-07-15 05:43:00,
2013-07-15 01:48:00,67.1,67.0,29.62,SW,225,0.0,0.0,100,0.00,,,0.00,Rainwise IP-100,2013-07-15 05:48:00,
2013-07-15 01:53:00,67.0,67.0,29.62,SW,225,0.0,0.0,100,0.00,,,0.00,Rainwise IP-100,2013-07-15 05:53:00,
2013-07-15 01:59:00,66.9,67.0,29.62,SW,225,0.0,0.0,100,0.00,,,0.00,Rainwise IP-100,2013-07-15 05:59:00,
2013-07-15 02:04:00,66.7,66.7,29.62,SW,225,0.0,0.0,100,0.00,,,0.00,Rainwise IP-100,2013-07-15 06:04:00,
2013-07-15 02:09:00,66.6,66.7,29.61,SW,225,0.0,0.0,100,0.00,,,0.00,Rainwise IP-100,2013-07-15 06:09:00,
2013-07-15 02:10:00,66.7,66.3,29.61,SW,225,0.0,0.0,99,0.00,,,0.00,Rainwise IP-100,2013-07-15 06:10:00,
2013-07-15 02:15:00,66.6,66.3,29.61,SW,225,0.0,0.0,98,0.00,,,0.00,Rainwise IP-100,2013-07-15 06:15:00,
2013-07-15 02:20:00,66.5,66.3,29.61,SW,225,0.0,0.0,99,0.00,,,0.00,Rainwise IP-100,2013-07-15 06:20:00,
2013-07-15 02:26:00,66.3,66.3,29.61,SW,225,0.0,0.0,100,0.00,,,0.00,Rainwise IP-100,2013-07-15 06:26:00,
2013-07-15 02:31:00,66.3,66.3,29.61,SW,225,0.0,0.0,100,0.00,,,0.00,Rainwise IP-100,2013-07-15 06:31:00,
2013-07-15 02:36:00,66.3,66.3,29.61,SW,225,0.0,0.0,100,0.00,,,0.00,Rainwise IP-100,2013-07-15 06:36:00,
2013-07-15 02:41:00,66.1,66.0,29.61,SW,225,0.0,0.0,100,0.00,,,0.00,Rainwise IP-100,2013-07-15 06:41:00,
2013-07-15 02:46:00,66.1,66.0,29.61,SW,225,0.0,0.0,100,0.00,,,0.00,Rainwise IP-100,2013-07-15 06:46:00,
2013-07-15 02:51:00,66.1,66.0,29.61,SW,225,0.0,0.0,100,0.00,,,0.00,Rainwise IP-100,2013-07-15 06:51:00,
2013-07-15 02:56:00,66.1,66.0,29.61,SW,225,0.0,0.0,100,0.00,,,0.00,Rainwise IP-100,2013-07-15 06:56:00,
2013-07-15 03:01:00,66.3,66.3,29.60,SW,225,0.0,0.0,100,0.00,,,0.00,Rainwise IP-100,2013-07-15 07:01:00,
2013-07-15 03:07:00,66.1,66.0,29.60,SW,225,0.0,0.0,100,0.00,,,0.00,Rainwise IP-100,2013-07-15 07:07:00,
2013-07-15 03:12:00,66.1,66.0,29.60,SW,225,0.0,0.0,100,0.00,,,0.00,Rainwise IP-100,2013-07-15 07:12:00,
2013-07-15 03:17:00,65.9,66.0,29.60,SW,225,0.0,0.0,100,0.00,,,0.00,Rainwise IP-100,2013-07-15 07:17:00,
2013-07-15 03:22:00,65.8,66.0,29.60,SW,225,0.0,0.0,100,0.00,,,0.00,Rainwise IP-100,2013-07-15 07:22:00,
2013-07-15 03:27:00,65.7,65.5,29.60,SW,225,0.0,0.0,100,0.00,,,0.00,Rainwise IP-100,2013-07-15 07:27:00,
2013-07-15 03:32:00,65.7,65.5,29.60,SW,225,0.0,0.0,100,0.00,,,0.00,Rainwise IP-100,2013-07-15 07:32:00,
2013-07-15 03:37:00,65.5,65.5,29.60,SW,225,0.0,0.0,100,0.00,,,0.00,Rainwise IP-100,2013-07-15 07:37:00,
2013-07-15 03:42:00,65.4,65.5,29.60,SW,225,0.0,0.0,100,0.00,,,0.00,Rainwise IP-100,2013-07-15 07:42:00,
2013-07-15 03:47:00,65.2,65.0,29.61,SW,225,0.0,0.0,100,0.00,,,0.00,Rainwise IP-100,2013-07-15 07:47:00,
2013-07-15 03:53:00,65.3,65.5,29.60,SW,225,0.0,0.0,100,0.00,,,0.00,Rainwise IP-100,2013-07-15 07:53:00,
2013-07-15 03:58:00,65.3,65.5,29.60,SW,225,0.0,0.0,100,0.00,,,0.00,Rainwise IP-100,2013-07-15 07:58:00,
2013-07-15 04:03:00,65.1,65.0,29.60,SW,225,0.0,0.0,100,0.00,,,0.00,Rainwise IP-100,2013-07-15 08:03:00,
2013-07-15 04:08:00,64.9,65.0,29.60,SW,225,0.0,0.0,100,0.00,,,0.00,Rainwise IP-100,2013-07-15 08:08:00,
2013-07-15 04:13:00,64.7,64.5,29.60,SW,225,0.0,0.0,100,0.00,,,0.00,Rainwise IP-100,2013-07-15 08:13:00,
2013-07-15 04:18:00,64.6,64.5,29.60,SW,225,0.0,0.0,100,0.00,,,0.00,Rainwise IP-100,2013-07-15 08:18:00,
2013-07-15 04:23:00,64.6,64.5,29.60,SW,225,0.0,0.0,100,0.00,,,0.00,Rainwise IP-100,2013-07-15 08:23:00,
2013-07-15 04:28:00,64.6,64.5,29.60,SW,225,0.0,0.0,100,0.00,,,0.00,Rainwise IP-100,2013-07-15 08:28:00,
2013-07-15 04:33:00,64.4,64.5,29.60,SW,225,0.0,0.0,100,0.00,,,0.00,Rainwise IP-100,2013-07-15 08:33:00,
2013-07-15 04:38:00,64.3,64.5,29.60,SW,225,0.0,0.0,100,0.00,,,0.00,Rainwise IP-100,2013-07-15 08:38:00,
2013-07-15 04:44:00,64.3,64.5,29.60,SW,225,0.0,0.0,100,0.00,,,0.00,Rainwise IP-100,2013-07-15 08:44:00,
2013-07-15 04:49:00,64.4,64.5,29.60,SW,225,0.0,0.0,100,0.00,,,0.00,Rainwise IP-100,2013-07-15 08:49:00,
2013-07-15 04:54:00,64.6,64.5,29.60,SW,225,0.0,0.0,100,0.00,,,0.00,Rainwise IP-100,2013-07-15 08:54:00,
2013-07-15 04:59:00,64.7,64.5,29.60,SW,225,0.0,0.0,100,0.00,,,0.00,Rainwise IP-100,2013-07-15 08:59:00,
2013-07-15 05:02:00,64.7,64.5,29.61,SW,225,0.0,0.0,100,0.00,,,0.00,Rainwise IP-100,2013-07-15 09:02:00,
2013-07-15 05:07:00,64.8,65.0,29.61,SW,225,0.0,0.0,100,0.00,,,0.00,Rainwise IP-100,2013-07-15 09:07:00,
2013-07-15 05:12:00,64.9,65.0,29.61,SW,225,0.0,0.0,100,0.00,,,0.00,Rainwise IP-100,2013-07-15 09:12:00,
2013-07-15 05:18:00,64.9,65.0,29.61,SW,225,0.0,0.0,100,0.00,,,0.00,Rainwise IP-100,2013-07-15 09:18:00,
2013-07-15 05:23:00,65.1,65.0,29.61,SW,225,0.0,0.0,100,0.00,,,0.00,Rainwise IP-100,2013-07-15 09:23:00,
2013-07-15 05:28:00,65.1,65.0,29.61,SW,225,0.0,0.0,100,0.00,,,0.00,Rainwise IP-100,2013-07-15 09:28:00,
2013-07-15 05:33:00,65.1,65.0,29.61,SW,225,0.0,0.0,100,0.00,,,0.00,Rainwise IP-100,2013-07-15 09:33:00,
2013-07-15 05:38:00,65.3,65.5,29.61,SW,225,0.0,0.0,100,0.00,,,0.00,Rainwise IP-100,2013-07-15 09:38:00,
2013-07-15 05:43:00,65.4,65.5,29.61,SW,225,0.0,0.0,100,0.00,,,0.00,Rainwise IP-100,2013-07-15 09:43:00,
2013-07-15 05:48:00,65.6,65.5,29.61,SW,225,0.0,0.0,100,0.00,,,0.00,Rainwise IP-100,2013-07-15 09:48:00,
2013-07-15 05:53:00,65.7,65.5,29.61,SW,225,0.0,0.0,100,0.00,,,0.00,Rainwise IP-100,2013-07-15 09:53:00,
2013-07-15 05:59:00,65.8,66.0,29.62,SW,225,0.0,0.0,100,0.00,,,0.00,Rainwise IP-100,2013-07-15 09:59:00,
2013-07-15 06:04:00,65.9,66.0,29.62,SW,225,0.0,1.0,100,0.00,,,0.00,Rainwise IP-100,2013-07-15 10:04:00,
2013-07-15 06:09:00,65.9,66.0,29.62,SW,225,0.0,0.0,100,0.00,,,0.00,Rainwise IP-100,2013-07-15 10:09:00,
2013-07-15 06:14:00,66.1,66.0,29.62,SW,225,0.0,0.0,100,0.00,,,0.00,Rainwise IP-100,2013-07-15 10:14:00,
2013-07-15 06:19:00,66.6,66.7,29.62,SW,225,1.0,3.0,100,0.00,,,0.00,Rainwise IP-100,2013-07-15 10:19:00,
2013-07-15 06:24:00,66.6,66.7,29.62,SW,225,0.0,2.0,100,0.00,,,0.00,Rainwise IP-100,2013-07-15 10:24:00,
2013-07-15 06:29:00,66.7,66.7,29.62,SW,225,0.0,0.0,100,0.00,,,0.00,Rainwise IP-100,2013-07-15 10:29:00,
2013-07-15 06:34:00,66.9,67.0,29.62,SW,225,0.0,0.0,100,0.00,,,0.00,Rainwise IP-100,2013-07-15 10:34:00,
2013-07-15 06:40:00,66.9,67.0,29.62,SW,225,0.0,0.0,100,0.00,,,0.00,Rainwise IP-100,2013-07-15 10:40:00,
2013-07-15 06:45:00,66.9,67.0,29.62,SW,225,0.0,0.0,100,0.00,,,0.00,Rainwise IP-100,2013-07-15 10:45:00,
2013-07-15 06:50:00,67.3,67.5,29.62,SW,225,0.0,0.0,100,0.00,,,0.00,Rainwise IP-100,2013-07-15 10:50:00,
2013-07-15 06:53:00,67.8,68.0,29.62,SW,225,0.0,0.0,100,0.00,,,0.00,Rainwise IP-100,2013-07-15 10:53:00,
2013-07-15 06:58:00,67.9,68.0,29.62,SW,225,0.0,0.0,100,0.00,,,0.00,Rainwise IP-100,2013-07-15 10:58:00,
2013-07-15 07:04:00,68.1,68.0,29.62,SW,225,0.0,0.0,100,0.00,,,0.00,Rainwise IP-100,2013-07-15 11:04:00,
2013-07-15 07:09:00,68.1,68.0,29.62,SW,225,2.0,3.0,100,0.00,,,0.00,Rainwise IP-100,2013-07-15 11:09:00,
2013-07-15 07:14:00,68.1,68.0,29.63,SW,225,0.0,3.0,100,0.00,,,0.00,Rainwise IP-100,2013-07-15 11:14:00,
2013-07-15 07:19:00,68.4,68.5,29.63,SW,225,0.0,0.0,100,0.00,,,0.00,Rainwise IP-100,2013-07-15 11:19:00,
2013-07-15 07:24:00,68.8,69.0,29.63,SW,225,0.0,0.0,100,0.00,,,0.00,Rainwise IP-100,2013-07-15 11:24:00,
2013-07-15 07:29:00,68.9,69.0,29.63,East,90,1.0,4.0,100,0.00,,,0.00,Rainwise IP-100,2013-07-15 11:29:00,
2013-07-15 07:34:00,69.1,69.0,29.63,SE,135,1.0,3.0,100,0.00,,,0.00,Rainwise IP-100,2013-07-15 11:34:00,
2013-07-15 07:39:00,69.5,69.7,29.63,ESE,112,2.0,3.0,100,0.00,,,0.00,Rainwise IP-100,2013-07-15 11:39:00,
2013-07-15 07:45:00,69.6,69.7,29.63,East,90,1.0,4.0,100,0.00,,,0.00,Rainwise IP-100,2013-07-15 11:45:00,
2013-07-15 07:50:00,70.2,70.0,29.64,East,90,4.0,5.0,100,0.00,,,0.00,Rainwise IP-100,2013-07-15 11:50:00,
2013-07-15 07:55:00,70.9,71.0,29.64,NE,45,4.0,5.0,100,0.00,,,0.00,Rainwise IP-100,2013-07-15 11:55:00,
2013-07-15 08:00:00,71.7,71.7,29.64,ENE,67,2.0,4.0,100,0.00,,,0.00,Rainwise IP-100,2013-07-15 12:00:00,
2013-07-15 08:05:00,72.5,72.7,29.64,ENE,67,3.0,5.0,100,0.00,,,0.00,Rainwise IP-100,2013-07-15 12:05:00,
2013-07-15 08:10:00,73.4,73.3,29.64,ESE,112,3.0,6.0,100,0.00,,,0.00,Rainwise IP-100,2013-07-15 12:10:00,
2013-07-15 08:15:00,73.9,73.3,29.65,East,90,3.0,6.0,98,0.00,,,0.00,Rainwise IP-100,2013-07-15 12:15:00,
2013-07-15 08:20:00,74.3,73.3,29.65,East,90,4.0,5.0,97,0.00,,,0.00,Rainwise IP-100,2013-07-15 12:20:00,
2013-07-15 08:25:00,74.4,73.0,29.65,ENE,67,4.0,6.0,95,0.00,,,0.00,Rainwise IP-100,2013-07-15 12:25:00,
2013-07-15 08:31:00,74.5,72.7,29.65,East,90,3.0,6.0,93,0.00,,,0.00,Rainwise IP-100,2013-07-15 12:31:00,
2013-07-15 08:36:00,74.2,72.7,29.65,East,90,0.0,6.0,94,0.00,,,0.00,Rainwise IP-100,2013-07-15 12:36:00,
2013-07-15 08:41:00,74.6,72.3,29.65,East,90,2.0,5.0,92,0.00,,,0.00,Rainwise IP-100,2013-07-15 12:41:00,
2013-07-15 08:46:00,74.9,72.7,29.65,ENE,67,3.0,4.0,92,0.00,,,0.00,Rainwise IP-100,2013-07-15 12:46:00,
2013-07-15 08:51:00,75.9,73.3,29.65,SE,135,4.0,5.0,92,0.00,,,0.00,Rainwise IP-100,2013-07-15 12:51:00,
2013-07-15 08:56:00,76.7,73.3,29.65,ENE,67,2.0,5.0,89,0.00,,,0.00,Rainwise IP-100,2013-07-15 12:56:00,
2013-07-15 09:01:00,77.0,73.3,29.65,East,90,3.0,6.0,88,0.00,,,0.00,Rainwise IP-100,2013-07-15 13:01:00,
2013-07-15 09:06:00,77.5,73.7,29.65,ENE,67,4.0,6.0,88,0.00,,,0.00,Rainwise IP-100,2013-07-15 13:06:00,
2013-07-15 09:11:00,78.1,73.7,29.66,East,90,3.0,5.0,87,0.00,,,0.00,Rainwise IP-100,2013-07-15 13:11:00,
2013-07-15 09:16:00,78.8,73.7,29.65,NNE,22,3.0,6.0,85,0.00,,,0.00,Rainwise IP-100,2013-07-15 13:16:00,
2013-07-15 09:22:00,79.4,74.3,29.66,East,90,3.0,5.0,85,0.00,,,0.00,Rainwise IP-100,2013-07-15 13:22:00,
2013-07-15 09:27:00,80.2,74.7,29.66,ESE,112,1.0,5.0,84,0.00,,,0.00,Rainwise IP-100,2013-07-15 13:27:00,
2013-07-15 09:32:00,81.4,76.0,29.66,ENE,67,0.0,5.0,83,0.00,,,0.00,Rainwise IP-100,2013-07-15 13:32:00,
2013-07-15 09:37:00,82.2,75.0,29.66,ENE,67,3.0,4.0,79,0.00,,,0.00,Rainwise IP-100,2013-07-15 13:37:00,
2013-07-15 09:42:00,81.6,74.0,29.66,East,90,1.0,4.0,78,0.00,,,0.00,Rainwise IP-100,2013-07-15 13:42:00,
2013-07-15 09:47:00,81.6,75.0,29.66,East,90,1.0,3.0,81,0.00,,,0.00,Rainwise IP-100,2013-07-15 13:47:00,
2013-07-15 09:52:00,82.4,76.0,29.66,East,90,3.0,6.0,80,0.00,,,0.00,Rainwise IP-100,2013-07-15 13:52:00,
2013-07-15 09:57:00,83.4,74.3,29.66,ENE,67,2.0,5.0,74,0.00,,,0.00,Rainwise IP-100,2013-07-15 13:57:00,
2013-07-15 10:02:00,83.2,73.7,29.66,ENE,67,3.0,5.0,73,0.00,,,0.00,Rainwise IP-100,2013-07-15 14:02:00,
2013-07-15 10:07:00,82.2,74.0,29.66,ESE,112,1.0,5.0,77,0.00,,,0.00,Rainwise IP-100,2013-07-15 14:07:00,
2013-07-15 10:13:00,81.5,74.3,29.66,ESE,112,0.0,3.0,79,0.00,,,0.00,Rainwise IP-100,2013-07-15 14:13:00,
2013-07-15 10:18:00,81.2,74.3,29.66,ESE,112,0.0,0.0,80,0.00,,,0.00,Rainwise IP-100,2013-07-15 14:18:00,
2013-07-15 10:23:00,81.1,74.7,29.66,ESE,112,0.0,0.0,81,0.00,,,0.00,Rainwise IP-100,2013-07-15 14:23:00,
2013-07-15 10:28:00,80.9,74.7,29.65,ESE,112,0.0,0.0,81,0.00,,,0.00,Rainwise IP-100,2013-07-15 14:28:00,
2013-07-15 10:33:00,81.6,74.3,29.65,WSW,247,3.0,4.0,79,0.00,,,0.00,Rainwise IP-100,2013-07-15 14:33:00,
2013-07-15 10:38:00,83.4,77.3,29.65,ENE,67,2.0,4.0,82,0.00,,,0.00,Rainwise IP-100,2013-07-15 14:38:00,
2013-07-15 10:43:00,84.0,75.5,29.65,NNE,22,6.0,6.0,75,0.00,,,0.00,Rainwise IP-100,2013-07-15 14:43:00,
2013-07-15 10:48:00,84.3,75.5,29.66,South,180,6.0,7.0,75,0.00,,,0.00,Rainwise IP-100,2013-07-15 14:48:00,
2013-07-15 10:53:00,83.5,73.7,29.66,ESE,112,2.0,7.0,72,0.00,,,0.00,Rainwise IP-100,2013-07-15 14:53:00,
2013-07-15 10:59:00,82.7,72.3,29.66,NE,45,4.0,5.0,71,0.00,,,0.00,Rainwise IP-100,2013-07-15 14:59:00,
2013-07-15 11:04:00,82.7,73.7,29.65,NNE,22,0.0,5.0,74,0.00,,,0.00,Rainwise IP-100,2013-07-15 15:04:00,
2013-07-15 11:09:00,83.9,74.3,29.65,SE,135,0.0,2.0,73,0.00,,,0.00,Rainwise IP-100,2013-07-15 15:09:00,
2013-07-15 11:14:00,84.7,74.0,29.65,NE,45,5.0,5.0,71,0.00,,,0.00,Rainwise IP-100,2013-07-15 15:14:00,
2013-07-15 11:19:00,85.2,74.0,29.65,NNE,22,3.0,6.0,70,0.00,,,0.00,Rainwise IP-100,2013-07-15 15:19:00,
2013-07-15 11:24:00,85.7,73.0,29.66,SSE,157,2.0,7.0,66,0.00,,,0.00,Rainwise IP-100,2013-07-15 15:24:00,
2013-07-15 11:29:00,85.9,72.7,29.66,SE,135,7.0,7.0,65,0.00,,,0.00,Rainwise IP-100,2013-07-15 15:29:00,
2013-07-15 11:34:00,85.5,73.0,29.66,SE,135,1.0,7.0,67,0.00,,,0.00,Rainwise IP-100,2013-07-15 15:34:00,
2013-07-15 11:39:00,85.3,73.3,29.66,NE,45,0.0,3.0,68,0.00,,,0.00,Rainwise IP-100,2013-07-15 15:39:00,
2013-07-15 11:44:00,84.7,71.3,29.65,WSW,247,2.0,6.0,64,0.00,,,0.00,Rainwise IP-100,2013-07-15 15:44:00,
2013-07-15 11:50:00,85.3,73.0,29.65,WNW,292,1.0,5.0,67,0.00,,,0.00,Rainwise IP-100,2013-07-15 15:50:00,
2013-07-15 11:55:00,86.5,69.3,29.65,WNW,292,1.0,5.0,57,0.00,,,0.00,Rainwise IP-100,2013-07-15 15:55:00,
2013-07-15 12:00:00,87.0,68.5,29.65,NE,45,3.0,7.0,54,0.00,,,0.00,Rainwise IP-100,2013-07-15 16:00:00,
2013-07-15 12:05:00,85.8,67.0,29.65,NW,315,5.0,8.0,54,0.00,,,0.00,Rainwise IP-100,2013-07-15 16:05:00,
2013-07-15 12:10:00,85.9,69.0,29.65,WNW,292,4.0,8.0,57,0.00,,,0.00,Rainwise IP-100,2013-07-15 16:10:00,
2013-07-15 12:15:00,86.9,69.3,29.65,NNW,337,6.0,6.0,56,0.00,,,0.00,Rainwise IP-100,2013-07-15 16:15:00,
2013-07-15 12:20:00,88.2,68.0,29.65,NNE,22,1.0,9.0,51,0.00,,,0.00,Rainwise IP-100,2013-07-15 16:20:00,
2013-07-15 12:25:00,88.2,65.0,29.64,NNW,337,3.0,12.0,46,0.00,,,0.00,Rainwise IP-100,2013-07-15 16:25:00,
2013-07-15 12:30:00,87.2,66.0,29.65,NW,315,6.0,9.0,49,0.00,,,0.00,Rainwise IP-100,2013-07-15 16:30:00,
2013-07-15 12:36:00,87.2,68.5,29.64,NW,315,2.0,10.0,54,0.00,,,0.00,Rainwise IP-100,2013-07-15 16:36:00,
2013-07-15 12:41:00,87.7,68.0,29.64,WNW,292,4.0,7.0,52,0.00,,,0.00,Rainwise IP-100,2013-07-15 16:41:00,
2013-07-15 12:46:00,87.5,68.0,29.64,NW,315,5.0,9.0,52,0.00,,,0.00,Rainwise IP-100,2013-07-15 16:46:00,
2013-07-15 12:51:00,87.5,64.5,29.64,WNW,292,5.0,12.0,46,0.00,,,0.00,Rainwise IP-100,2013-07-15 16:51:00,
2013-07-15 12:56:00,87.6,70.0,29.64,NNW,337,6.0,6.0,56,0.00,,,0.00,Rainwise IP-100,2013-07-15 16:56:00,
2013-07-15 13:01:00,88.1,70.0,29.64,NNE,22,6.0,9.0,55,0.00,,,0.00,Rainwise IP-100,2013-07-15 17:01:00,
2013-07-15 13:06:00,88.6,66.0,29.64,ENE,67,9.0,9.0,47,0.00,,,0.00,Rainwise IP-100,2013-07-15 17:06:00,
2013-07-15 13:12:00,88.6,66.0,29.64,NNE,22,1.0,13.0,47,0.00,,,0.00,Rainwise IP-100,2013-07-15 17:12:00,
2013-07-15 13:17:00,88.8,65.5,29.64,WNW,292,3.0,10.0,46,0.00,,,0.00,Rainwise IP-100,2013-07-15 17:17:00,
2013-07-15 13:22:00,88.3,66.7,29.63,NNE,22,10.0,11.0,49,0.00,,,0.00,Rainwise IP-100,2013-07-15 17:22:00,
2013-07-15 13:27:00,88.0,65.5,29.63,NW,315,7.0,10.0,47,0.00,,,0.00,Rainwise IP-100,2013-07-15 17:27:00,
2013-07-15 13:32:00,88.3,66.3,29.63,WSW,247,4.0,10.0,48,0.00,,,0.00,Rainwise IP-100,2013-07-15 17:32:00,
2013-07-15 13:37:00,88.6,65.5,29.63,WNW,292,5.0,11.0,46,0.00,,,0.00,Rainwise IP-100,2013-07-15 17:37:00,
2013-07-15 13:42:00,88.3,65.5,29.63,NW,315,6.0,10.0,47,0.00,,,0.00,Rainwise IP-100,2013-07-15 17:42:00,
2013-07-15 13:47:00,88.9,68.0,29.63,WNW,292,6.0,10.0,50,0.00,,,0.00,Rainwise IP-100,2013-07-15 17:47:00,
2013-07-15 13:53:00,88.5,64.5,29.63,NW,315,4.0,8.0,45,0.00,,,0.00,Rainwise IP-100,2013-07-15 17:53:00,
2013-07-15 13:58:00,88.9,65.5,29.62,NNW,337,3.0,12.0,46,0.00,,,0.00,Rainwise IP-100,2013-07-15 17:58:00,
2013-07-15 14:03:00,89.0,63.5,29.63,NNE,22,9.0,11.0,43,0.00,,,0.00,Rainwise IP-100,2013-07-15 18:03:00,
2013-07-15 14:08:00,89.1,64.5,29.62,NNW,337,1.0,12.0,44,0.00,,,0.00,Rainwise IP-100,2013-07-15 18:08:00,
2013-07-15 14:13:00,88.7,65.0,29.62,NNW,337,6.0,9.0,45,0.00,,,0.00,Rainwise IP-100,2013-07-15 18:13:00,
2013-07-15 14:18:00,88.1,65.5,29.62,WNW,292,5.0,7.0,47,0.00,,,0.00,Rainwise IP-100,2013-07-15 18:18:00,
2013-07-15 14:23:00,88.3,65.5,29.62,West,270,3.0,7.0,47,0.00,,,0.00,Rainwise IP-100,2013-07-15 18:23:00,
2013-07-15 14:28:00,89.3,67.5,29.62,NW,315,3.0,6.0,49,0.00,,,0.00,Rainwise IP-100,2013-07-15 18:28:00,
2013-07-15 14:33:00,89.6,66.7,29.62,SW,225,9.0,12.0,47,0.00,,,0.00,Rainwise IP-100,2013-07-15 18:33:00,
2013-07-15 14:39:00,89.2,67.5,29.62,ENE,67,5.0,10.0,49,0.00,,,0.00,Rainwise IP-100,2013-07-15 18:39:00,
2013-07-15 14:44:00,88.7,69.0,29.62,WNW,292,5.0,10.0,52,0.00,,,0.00,Rainwise IP-100,2013-07-15 18:44:00,
2013-07-15 14:49:00,89.1,64.5,29.62,NNE,22,3.0,9.0,44,0.00,,,0.00,Rainwise IP-100,2013-07-15 18:49:00,
2013-07-15 14:54:00,88.9,67.5,29.62,NNW,337,4.0,7.0,49,0.00,,,0.00,Rainwise IP-100,2013-07-15 18:54:00,
2013-07-15 14:59:00,90.2,69.7,29.62,NNE,22,0.0,7.0,51,0.00,,,0.00,Rainwise IP-100,2013-07-15 18:59:00,
2013-07-15 15:04:00,90.5,67.5,29.62,North,360,5.0,9.0,47,0.00,,,0.00,Rainwise IP-100,2013-07-15 19:04:00,
2013-07-15 15:09:00,89.6,65.5,29.62,West,270,7.0,10.0,45,0.00,,,0.00,Rainwise IP-100,2013-07-15 19:09:00,
2013-07-15 15:14:00,89.4,66.0,29.62,NW,315,7.0,11.0,46,0.00,,,0.00,Rainwise IP-100,2013-07-15 19:14:00,
2013-07-15 15:20:00,88.7,64.0,29.62,West,270,3.0,9.0,44,0.00,,,0.00,Rainwise IP-100,2013-07-15 19:20:00,
2013-07-15 15:25:00,89.0,65.5,29.62,WNW,292,7.0,9.0,46,0.00,,,0.00,Rainwise IP-100,2013-07-15 19:25:00,
2013-07-15 15:30:00,88.6,65.5,29.62,WNW,292,6.0,9.0,46,0.00,,,0.00,Rainwise IP-100,2013-07-15 19:30:00,
2013-07-15 15:35:00,87.6,66.3,29.61,North,360,0.0,11.0,49,0.00,,,0.00,Rainwise IP-100,2013-07-15 19:35:00,
2013-07-15 15:40:00,88.7,66.7,29.61,NE,45,2.0,8.0,48,0.00,,,0.00,Rainwise IP-100,2013-07-15 19:40:00,
2013-07-15 15:45:00,89.8,66.7,29.61,NW,315,5.0,7.0,47,0.00,,,0.00,Rainwise IP-100,2013-07-15 19:45:00,
2013-07-15 15:50:00,89.9,66.3,29.62,NNW,337,4.0,10.0,46,0.00,,,0.00,Rainwise IP-100,2013-07-15 19:50:00,
2013-07-15 15:55:00,88.9,66.3,29.61,WNW,292,6.0,9.0,47,0.00,,,0.00,Rainwise IP-100,2013-07-15 19:55:00,
2013-07-15 16:01:00,88.9,66.3,29.61,NW,315,3.0,9.0,47,0.00,,,0.00,Rainwise IP-100,2013-07-15 20:01:00,
2013-07-15 16:06:00,89.7,71.0,29.61,ENE,67,7.0,7.0,54,0.00,,,0.00,Rainwise IP-100,2013-07-15 20:06:00,
2013-07-15 16:11:00,89.7,66.3,29.61,NW,315,1.0,7.0,46,0.00,,,0.00,Rainwise IP-100,2013-07-15 20:11:00,
2013-07-15 16:16:00,90.3,66.7,29.61,NW,315,2.0,7.0,46,0.00,,,0.00,Rainwise IP-100,2013-07-15 20:16:00,
2013-07-15 16:21:00,90.3,67.5,29.61,WNW,292,3.0,9.0,47,0.00,,,0.00,Rainwise IP-100,2013-07-15 20:21:00,
2013-07-15 16:26:00,90.9,69.3,29.61,West,270,1.0,7.0,49,0.00,,,0.00,Rainwise IP-100,2013-07-15 20:26:00,
2013-07-15 16:31:00,90.6,69.0,29.61,NW,315,0.0,8.0,49,0.00,,,0.00,Rainwise IP-100,2013-07-15 20:31:00,
2013-07-15 16:36:00,91.3,67.5,29.61,NW,315,1.0,8.0,46,0.00,,,0.00,Rainwise IP-100,2013-07-15 20:36:00,
2013-07-15 16:41:00,91.4,65.5,29.61,West,270,3.0,6.0,42,0.00,,,0.00,Rainwise IP-100,2013-07-15 20:41:00,
2013-07-15 16:46:00,90.9,69.3,29.61,NW,315,6.0,6.0,49,0.00,,,0.00,Rainwise IP-100,2013-07-15 20:46:00,
2013-07-15 16:52:00,90.7,66.7,29.61,West,270,3.0,7.0,45,0.00,,,0.00,Rainwise IP-100,2013-07-15 20:52:00,
2013-07-15 16:57:00,88.7,66.7,29.61,WNW,292,0.0,7.0,48,0.00,,,0.00,Rainwise IP-100,2013-07-15 20:57:00,
2013-07-15 17:02:00,87.9,66.7,29.60,NNW,337,4.0,6.0,49,0.00,,,0.00,Rainwise IP-100,2013-07-15 21:02:00,
2013-07-15 17:07:00,88.6,66.0,29.60,WNW,292,4.0,5.0,47,0.00,,,0.00,Rainwise IP-100,2013-07-15 21:07:00,
2013-07-15 17:12:00,88.9,69.3,29.60,NNW,337,1.0,9.0,52,0.00,,,0.00,Rainwise IP-100,2013-07-15 21:12:00,
2013-07-15 17:17:00,89.6,69.0,29.60,North,360,1.0,7.0,51,0.00,,,0.00,Rainwise IP-100,2013-07-15 21:17:00,
2013-07-15 17:22:00,90.2,69.3,29.60,NNW,337,3.0,6.0,50,0.00,,,0.00,Rainwise IP-100,2013-07-15 21:22:00,
2013-07-15 17:27:00,90.5,69.0,29.60,West,270,3.0,6.0,49,0.00,,,0.00,Rainwise IP-100,2013-07-15 21:27:00,
2013-07-15 17:33:00,89.9,69.0,29.60,WNW,292,5.0,6.0,50,0.00,,,0.00,Rainwise IP-100,2013-07-15 21:33:00,
2013-07-15 17:38:00,89.5,68.0,29.60,West,270,3.0,6.0,49,0.00,,,0.00,Rainwise IP-100,2013-07-15 21:38:00,
2013-07-15 17:43:00,89.9,70.0,29.60,WSW,247,1.0,6.0,52,0.00,,,0.00,Rainwise IP-100,2013-07-15 21:43:00,
2013-07-15 17:48:00,90.5,70.5,29.60,NNE,22,0.0,6.0,52,0.00,,,0.00,Rainwise IP-100,2013-07-15 21:48:00,
2013-07-15 17:53:00,91.1,72.0,29.60,West,270,0.0,4.0,54,0.00,,,0.00,Rainwise IP-100,2013-07-15 21:53:00,
2013-07-15 17:58:00,90.6,70.5,29.60,NNW,337,4.0,8.0,52,0.00,,,0.00,Rainwise IP-100,2013-07-15 21:58:00,
2013-07-15 18:03:00,89.4,66.7,29.60,WNW,292,4.0,9.0,47,0.00,,,0.00,Rainwise IP-100,2013-07-15 22:03:00,
2013-07-15 18:08:00,88.7,67.0,29.60,West,270,7.0,9.0,49,0.00,,,0.00,Rainwise IP-100,2013-07-15 22:08:00,
2013-07-15 18:13:00,88.3,68.5,29.60,WSW,247,1.0,7.0,52,0.00,,,0.00,Rainwise IP-100,2013-07-15 22:13:00,
2013-07-15 18:19:00,88.5,69.3,29.60,West,270,4.0,6.0,53,0.00,,,0.00,Rainwise IP-100,2013-07-15 22:19:00,
2013-07-15 18:24:00,88.6,71.0,29.59,WNW,292,6.0,6.0,56,0.00,,,0.00,Rainwise IP-100,2013-07-15 22:24:00,
2013-07-15 18:29:00,88.5,69.7,29.59,WNW,292,5.0,6.0,54,0.00,,,0.00,Rainwise IP-100,2013-07-15 22:29:00,
2013-07-15 18:34:00,88.4,69.7,29.59,WNW,292,1.0,6.0,54,0.00,,,0.00,Rainwise IP-100,2013-07-15 22:34:00,
2013-07-15 18:39:00,88.3,69.7,29.59,WNW,292,2.0,5.0,54,0.00,,,0.00,Rainwise IP-100,2013-07-15 22:39:00,
2013-07-15 18:44:00,88.0,73.7,29.59,WNW,292,3.0,3.0,63,0.00,,,0.00,Rainwise IP-100,2013-07-15 22:44:00,
2013-07-15 18:49:00,87.6,73.7,29.59,WNW,292,1.0,4.0,64,0.00,,,0.00,Rainwise IP-100,2013-07-15 22:49:00,
2013-07-15 18:54:00,87.3,72.7,29.59,WSW,247,1.0,3.0,62,0.00,,,0.00,Rainwise IP-100,2013-07-15 22:54:00,
2013-07-15 19:00:00,86.8,73.7,29.59,WSW,247,1.0,2.0,66,0.00,,,0.00,Rainwise IP-100,2013-07-15 23:00:00,
2013-07-15 19:05:00,85.7,73.0,29.59,WSW,247,2.0,3.0,66,0.00,,,0.00,Rainwise IP-100,2013-07-15 23:05:00,
2013-07-15 19:10:00,84.8,72.3,29.59,WSW,247,2.0,4.0,67,0.00,,,0.00,Rainwise IP-100,2013-07-15 23:10:00,
2013-07-15 19:15:00,83.9,72.3,29.59,WSW,247,3.0,5.0,68,0.00,,,0.00,Rainwise IP-100,2013-07-15 23:15:00,
2013-07-15 19:20:00,83.2,71.7,29.58,WSW,247,3.0,4.0,68,0.00,,,0.00,Rainwise IP-100,2013-07-15 23:20:00,
2013-07-15 19:25:00,82.9,72.7,29.58,WSW,247,3.0,4.0,71,0.00,,,0.00,Rainwise IP-100,2013-07-15 23:25:00,
2013-07-15 19:30:00,82.6,72.3,29.58,WSW,247,1.0,3.0,71,0.00,,,0.00,Rainwise IP-100,2013-07-15 23:30:00,
2013-07-15 19:35:00,82.2,72.0,29.58,WSW,247,3.0,3.0,71,0.00,,,0.00,Rainwise IP-100,2013-07-15 23:35:00,
2013-07-15 19:41:00,81.8,72.3,29.58,WNW,292,3.0,4.0,73,0.00,,,0.00,Rainwise IP-100,2013-07-15 23:41:00,
2013-07-15 19:46:00,80.9,71.3,29.58,WNW,292,3.0,4.0,72,0.00,,,0.00,Rainwise IP-100,2013-07-15 23:46:00,
2013-07-15 19:51:00,80.0,71.0,29.58,West,270,1.0,4.0,74,0.00,,,0.00,Rainwise IP-100,2013-07-15 23:51:00,
2013-07-15 19:56:00,79.3,71.3,29.58,West,270,3.0,4.0,76,0.00,,,0.00,Rainwise IP-100,2013-07-15 23:56:00,
2013-07-15 20:01:00,78.7,71.3,29.57,West,270,3.0,4.0,78,0.00,,,0.00,Rainwise IP-100,2013-07-16 00:01:00,
2013-07-15 20:06:00,78.0,71.7,29.57,SSW,202,0.0,4.0,80,0.00,,,0.00,Rainwise IP-100,2013-07-16 00:06:00,
2013-07-15 20:11:00,77.7,71.7,29.57,West,270,3.0,5.0,81,0.00,,,0.00,Rainwise IP-100,2013-07-16 00:11:00,
2013-07-15 20:16:00,77.4,71.3,29.57,West,270,2.0,5.0,81,0.00,,,0.00,Rainwise IP-100,2013-07-16 00:16:00,
2013-07-15 20:21:00,77.2,71.3,29.57,West,270,1.0,4.0,81,0.00,,,0.00,Rainwise IP-100,2013-07-16 00:21:00,
2013-07-15 20:27:00,76.9,71.0,29.57,West,270,3.0,3.0,81,0.00,,,0.00,Rainwise IP-100,2013-07-16 00:27:00,
2013-07-15 20:32:00,76.8,71.0,29.57,West,270,2.0,4.0,82,0.00,,,0.00,Rainwise IP-100,2013-07-16 00:32:00,
2013-07-15 20:37:00,76.3,70.5,29.56,West,270,2.0,4.0,82,0.00,,,0.00,Rainwise IP-100,2013-07-16 00:37:00,
2013-07-15 20:42:00,76.1,70.5,29.56,West,270,3.0,4.0,83,0.00,,,0.00,Rainwise IP-100,2013-07-16 00:42:00,
2013-07-15 20:47:00,75.8,70.5,29.56,West,270,3.0,4.0,83,0.00,,,0.00,Rainwise IP-100,2013-07-16 00:47:00,
2013-07-15 20:52:00,75.5,71.0,29.56,West,270,1.0,3.0,85,0.00,,,0.00,Rainwise IP-100,2013-07-16 00:52:00,
2013-07-15 20:57:00,75.3,69.7,29.56,West,270,3.0,3.0,82,0.00,,,0.00,Rainwise IP-100,2013-07-16 00:57:00,
2013-07-15 21:02:00,75.2,70.0,29.56,West,270,3.0,4.0,84,0.00,,,0.00,Rainwise IP-100,2013-07-16 01:02:00,
2013-07-15 21:08:00,74.7,69.7,29.56,West,270,2.0,3.0,84,0.00,,,0.00,Rainwise IP-100,2013-07-16 01:08:00,
2013-07-15 21:13:00,74.3,69.0,29.57,West,270,1.0,3.0,83,0.00,,,0.00,Rainwise IP-100,2013-07-16 01:13:00,
2013-07-15 21:18:00,73.7,69.3,29.57,West,270,2.0,3.0,86,0.00,,,0.00,Rainwise IP-100,2013-07-16 01:18:00,
2013-07-15 21:23:00,73.6,69.3,29.57,West,270,1.0,3.0,86,0.00,,,0.00,Rainwise IP-100,2013-07-16 01:23:00,
2013-07-15 21:28:00,73.6,69.3,29.57,West,270,2.0,3.0,86,0.00,,,0.00,Rainwise IP-100,2013-07-16 01:28:00,
2013-07-15 21:33:00,73.6,69.3,29.57,West,270,2.0,3.0,86,0.00,,,0.00,Rainwise IP-100,2013-07-16 01:33:00,
2013-07-15 21:38:00,73.7,69.3,29.57,West,270,1.0,2.0,86,0.00,,,0.00,Rainwise IP-100,2013-07-16 01:38:00,
2013-07-15 21:43:00,74.1,69.3,29.57,WNW,292,3.0,4.0,85,0.00,,,0.00,Rainwise IP-100,2013-07-16 01:43:00,
2013-07-15 21:48:00,74.5,69.7,29.57,WNW,292,1.0,5.0,84,0.00,,,0.00,Rainwise IP-100,2013-07-16 01:48:00,
2013-07-15 21:53:00,74.4,69.3,29.57,WNW,292,0.0,3.0,84,0.00,,,0.00,Rainwise IP-100,2013-07-16 01:53:00,
2013-07-15 21:59:00,74.4,69.3,29.57,NW,315,2.0,5.0,84,0.00,,,0.00,Rainwise IP-100,2013-07-16 01:59:00,
2013-07-15 22:04:00,74.7,69.3,29.58,North,360,0.0,5.0,83,0.00,,,0.00,Rainwise IP-100,2013-07-16 02:04:00,
2013-07-15 22:09:00,74.7,69.3,29.58,North,360,3.0,3.0,83,0.00,,,0.00,Rainwise IP-100,2013-07-16 02:09:00,
2013-07-15 22:14:00,74.7,69.7,29.58,NE,45,2.0,6.0,84,0.00,,,0.00,Rainwise IP-100,2013-07-16 02:14:00,
2013-07-15 22:19:00,74.5,69.7,29.58,NE,45,0.0,4.0,84,0.00,,,0.00,Rainwise IP-100,2013-07-16 02:19:00,
2013-07-15 22:24:00,74.3,69.0,29.58,NE,45,0.0,0.0,83,0.00,,,0.00,Rainwise IP-100,2013-07-16 02:24:00,
2013-07-15 22:29:00,74.0,69.7,29.58,NE,45,0.0,0.0,86,0.00,,,0.00,Rainwise IP-100,2013-07-16 02:29:00,
2013-07-15 22:34:00,73.7,69.0,29.58,NE,45,0.0,0.0,85,0.00,,,0.00,Rainwise IP-100,2013-07-16 02:34:00,
2013-07-15 22:39:00,73.3,69.0,29.58,NE,45,0.0,0.0,86,0.00,,,0.00,Rainwise IP-100,2013-07-16 02:39:00,
2013-07-15 22:45:00,73.2,69.0,29.58,NE,45,0.0,0.0,85,0.00,,,0.00,Rainwise IP-100,2013-07-16 02:45:00,
2013-07-15 22:50:00,72.9,69.0,29.58,NE,45,0.0,0.0,87,0.00,,,0.00,Rainwise IP-100,2013-07-16 02:50:00,
2013-07-15 22:55:00,72.8,69.0,29.58,NE,45,0.0,0.0,88,0.00,,,0.00,Rainwise IP-100,2013-07-16 02:55:00,
2013-07-15 23:00:00,72.7,69.3,29.58,NE,45,0.0,0.0,89,0.00,,,0.00,Rainwise IP-100,2013-07-16 03:00:00,
2013-07-15 23:05:00,72.5,68.5,29.58,NE,45,0.0,0.0,87,0.00,,,0.00,Rainwise IP-100,2013-07-16 03:05:00,
2013-07-15 23:10:00,72.1,68.5,29.58,NE,45,0.0,0.0,88,0.00,,,0.00,Rainwise IP-100,2013-07-16 03:10:00,
2013-07-15 23:15:00,71.9,68.5,29.58,NE,45,0.0,0.0,89,0.00,,,0.00,Rainwise IP-100,2013-07-16 03:15:00,
2013-07-15 23:20:00,71.8,68.0,29.58,NE,45,0.0,0.0,89,0.00,,,0.00,Rainwise IP-100,2013-07-16 03:20:00,
2013-07-15 23:26:00,71.8,69.0,29.58,NNE,22,0.0,0.0,91,0.00,,,0.00,Rainwise IP-100,2013-07-16 03:26:00,
2013-07-15 23:31:00,71.5,68.5,29.58,NNE,22,0.0,0.0,90,0.00,,,0.00,Rainwise IP-100,2013-07-16 03:31:00,
2013-07-15 23:36:00,71.2,68.0,29.58,NNE,22,0.0,0.0,89,0.00,,,0.00,Rainwise IP-100,2013-07-16 03:36:00,
2013-07-15 23:41:00,70.7,67.5,29.58,NNE,22,0.0,0.0,91,0.00,,,0.00,Rainwise IP-100,2013-07-16 03:41:00,
2013-07-15 23:46:00,70.2,67.0,29.58,NNE,22,0.0,0.0,91,0.00,,,0.00,Rainwise IP-100,2013-07-16 03:46:00,
2013-07-15 23:51:00,70.1,67.5,29.58,ENE,67,1.0,3.0,92,0.00,,,0.00,Rainwise IP-100,2013-07-16 03:51:00,
2013-07-15 23:56:00,70.1,67.5,29.58,NNW,337,3.0,3.0,92,0.00,,,0.00,Rainwise IP-100,2013-07-16 03:56:00,